Chignik Lagoon, AK (99565)

6:33 AM AKDT on March 25, 2017 (GMT -0800)
Chignik | | Change Station

Elev 16 ft 56.31 °N, 158.37 °W | Updated 1 hour ago

Clear
Clear
23 °F
Feels Like 23 °F
N
0
Wind Variable Wind from North

Today
High -- | Low -- °F
--% Chance of Precip.
Yesterday
High -- | Low -- °F
Precip. -- in
Pressure 29.65 in
Visibility 10.0 miles
Clouds Clear
Dew Point 16 °F
Humidity 74%
Rainfall 0.00 in
Snow Depth Not available.
8:21 AM 8:59 PM
Waning Crescent, 8% visible
METAR PAJC 251256Z AUTO 00000KT 10SM CLR M05/M09 A2964 RMK AO2 SLP039 T10501089 FZRANO
Pressure 29.65 in
Visibility 10.0 miles
Clouds Clear
Dew Point 16 °F
Humidity 74%
Rainfall 0.00 in
Snow Depth Not available.
8:21 AM 8:59 PM
Waning Crescent, 8% visible
METAR PAJC 251256Z AUTO 00000KT 10SM CLR M05/M09 A2964 RMK AO2 SLP039 T10501089 FZRANO

Get Severe Weather Alerts

Thanks for signing up!

Be on the lookout for a verification email in your inbox.

You'll start receiving the daily forecast at 8 AM.

×

10-Day Weather Forecast

Almanac

Astronomy

Mar. 25, 2017 Rise Set
Actual Time
Civil Twilight
Nautical Twilight
Astronomical Twilight
Moon
Length of Visible Light
Length of Day
Tomorrow will be .
, % of the Moon is Illuminated

Today's Extremes

State Highs State Lows

Community

WunderPhotos

Upload Photos

1,962,540 photos uploaded!

WunderBlog® & News

Nearby

Air Quality

  Air Quality AQ Index Pollutant
Not available.

Snow Depth

Station Depth Elevation

Earthquake Activity

City Distance Mag. Time & Date
Minimum magnitude displayed is 2.5.

Earthquake Activity

City Distance Mag. Time & Date
Minimum magnitude displayed is 2.5.

Coastal Water Temperatures

Place Temperature

Stations

Nearby Weather Stations

Station Location Temp. Windchill Dew Point Humidity Wind Precip. Elev Updated Type
                   

Watches & Warnings

There are currently no watches in effect.